sensor_id;sensor_type;location;lat;lon;timestamp;P1;durP1;ratioP1;P2;durP2;ratioP2
43504;SDS011;29098;48.184;16.298;2022-08-05T00:02:09;9.77;;;4.43;;
43504;SDS011;29098;48.184;16.298;2022-08-05T00:04:35;5.90;;;4.20;;
43504;SDS011;29098;48.184;16.298;2022-08-05T00:07:01;6.10;;;3.85;;
43504;SDS011;29098;48.184;16.298;2022-08-05T00:09:26;7.05;;;4.70;;
43504;SDS011;29098;48.184;16.298;2022-08-05T00:11:52;7.90;;;4.43;;
43504;SDS011;29098;48.184;16.298;2022-08-05T00:14:17;8.73;;;4.35;;
43504;SDS011;29098;48.184;16.298;2022-08-05T00:16:43;7.95;;;4.78;;
43504;SDS011;29098;48.184;16.298;2022-08-05T00:19:10;7.38;;;4.13;;
43504;SDS011;29098;48.184;16.298;2022-08-05T00:21:35;6.90;;;3.95;;
43504;SDS011;29098;48.184;16.298;2022-08-05T00:24:01;6.28;;;4.78;;
43504;SDS011;29098;48.184;16.298;2022-08-05T00:26:27;5.57;;;4.10;;
43504;SDS011;29098;48.184;16.298;2022-08-05T00:28:53;5.97;;;4.00;;
43504;SDS011;29098;48.184;16.298;2022-08-05T00:31:18;6.75;;;4.35;;
43504;SDS011;29098;48.184;16.298;2022-08-05T00:33:44;7.00;;;4.20;;
43504;SDS011;29098;48.184;16.298;2022-08-05T00:36:09;6.65;;;4.60;;
43504;SDS011;29098;48.184;16.298;2022-08-05T00:38:35;6.03;;;4.18;;
43504;SDS011;29098;48.184;16.298;2022-08-05T00:41:03;6.55;;;4.75;;
43504;SDS011;29098;48.184;16.298;2022-08-05T00:43:31;8.32;;;4.53;;
43504;SDS011;29098;48.184;16.298;2022-08-05T00:45:57;7.03;;;3.88;;
43504;SDS011;29098;48.184;16.298;2022-08-05T00:48:23;6.97;;;4.03;;
43504;SDS011;29098;48.184;16.298;2022-08-05T00:50:49;6.63;;;4.13;;
43504;SDS011;29098;48.184;16.298;2022-08-05T00:53:17;7.53;;;4.00;;
43504;SDS011;29098;48.184;16.298;2022-08-05T00:55:46;6.30;;;4.15;;
43504;SDS011;29098;48.184;16.298;2022-08-05T00:58:13;5.93;;;4.03;;
43504;SDS011;29098;48.184;16.298;2022-08-05T01:00:43;7.10;;;3.92;;
43504;SDS011;29098;48.184;16.298;2022-08-05T01:03:09;5.43;;;3.97;;
43504;SDS011;29098;48.184;16.298;2022-08-05T01:05:35;5.55;;;4.05;;
43504;SDS011;29098;48.184;16.298;2022-08-05T01:08:03;5.78;;;4.20;;
43504;SDS011;29098;48.184;16.298;2022-08-05T01:10:30;5.45;;;4.20;;
43504;SDS011;29098;48.184;16.298;2022-08-05T01:13:52;9.32;;;4.50;;
43504;SDS011;29098;48.184;16.298;2022-08-05T01:15:55;9.75;;;4.80;;
43504;SDS011;29098;48.184;16.298;2022-08-05T01:18:25;7.88;;;4.07;;
43504;SDS011;29098;48.184;16.298;2022-08-05T01:21:03;8.50;;;3.97;;
43504;SDS011;29098;48.184;16.298;2022-08-05T01:29:49;5.50;;;3.90;;
43504;SDS011;29098;48.184;16.298;2022-08-05T01:32:20;6.88;;;4.40;;
43504;SDS011;29098;48.184;16.298;2022-08-05T01:34:53;7.55;;;4.63;;
43504;SDS011;29098;48.184;16.298;2022-08-05T01:37:24;6.43;;;4.35;;
43504;SDS011;29098;48.184;16.298;2022-08-05T01:42:25;6.03;;;3.72;;
43504;SDS011;29098;48.184;16.298;2022-08-05T01:44:54;7.57;;;4.90;;
43504;SDS011;29098;48.184;16.298;2022-08-05T01:47:22;6.88;;;4.78;;
43504;SDS011;29098;48.184;16.298;2022-08-05T01:49:49;5.85;;;4.28;;
43504;SDS011;29098;48.184;16.298;2022-08-05T01:52:18;7.43;;;4.22;;
43504;SDS011;29098;48.184;16.298;2022-08-05T01:54:48;6.35;;;4.20;;
43504;SDS011;29098;48.184;16.298;2022-08-05T01:57:19;6.07;;;4.15;;
43504;SDS011;29098;48.184;16.298;2022-08-05T01:59:58;6.75;;;4.32;;
43504;SDS011;29098;48.184;16.298;2022-08-05T02:02:28;7.82;;;4.32;;
43504;SDS011;29098;48.184;16.298;2022-08-05T02:05:00;8.27;;;4.13;;
43504;SDS011;29098;48.184;16.298;2022-08-05T02:07:30;7.45;;;4.03;;
43504;SDS011;29098;48.184;16.298;2022-08-05T02:09:57;7.88;;;4.32;;
43504;SDS011;29098;48.184;16.298;2022-08-05T02:15:06;7.80;;;4.65;;
43504;SDS011;29098;48.184;16.298;2022-08-05T02:23:30;5.88;;;4.60;;
43504;SDS011;29098;48.184;16.298;2022-08-05T02:25:59;5.32;;;4.40;;
43504;SDS011;29098;48.184;16.298;2022-08-05T02:28:27;8.10;;;4.43;;
43504;SDS011;29098;48.184;16.298;2022-08-05T02:30:59;9.02;;;4.95;;
43504;SDS011;29098;48.184;16.298;2022-08-05T02:35:59;7.45;;;5.13;;
43504;SDS011;29098;48.184;16.298;2022-08-05T02:38:27;6.03;;;4.97;;
43504;SDS011;29098;48.184;16.298;2022-08-05T02:40:54;7.40;;;4.25;;
43504;SDS011;29098;48.184;16.298;2022-08-05T02:43:23;8.07;;;4.63;;
43504;SDS011;29098;48.184;16.298;2022-08-05T02:45:49;9.77;;;5.40;;
43504;SDS011;29098;48.184;16.298;2022-08-05T02:48:15;5.00;;;3.90;;
43504;SDS011;29098;48.184;16.298;2022-08-05T02:50:42;6.97;;;4.07;;
43504;SDS011;29098;48.184;16.298;2022-08-05T02:53:11;8.52;;;4.47;;
43504;SDS011;29098;48.184;16.298;2022-08-05T02:55:39;8.68;;;4.55;;
43504;SDS011;29098;48.184;16.298;2022-08-05T02:58:05;6.30;;;4.40;;
43504;SDS011;29098;48.184;16.298;2022-08-05T03:00:30;8.48;;;5.07;;
43504;SDS011;29098;48.184;16.298;2022-08-05T03:02:59;7.13;;;4.75;;
43504;SDS011;29098;48.184;16.298;2022-08-05T03:05:26;7.03;;;4.60;;
43504;SDS011;29098;48.184;16.298;2022-08-05T03:07:52;7.22;;;4.55;;
43504;SDS011;29098;48.184;16.298;2022-08-05T03:10:19;6.38;;;4.68;;
43504;SDS011;29098;48.184;16.298;2022-08-05T03:12:45;7.38;;;4.32;;
43504;SDS011;29098;48.184;16.298;2022-08-05T03:15:11;7.68;;;4.47;;
43504;SDS011;29098;48.184;16.298;2022-08-05T03:17:36;8.90;;;5.13;;
43504;SDS011;29098;48.184;16.298;2022-08-05T03:20:02;6.32;;;4.50;;
43504;SDS011;29098;48.184;16.298;2022-08-05T03:22:29;7.03;;;4.63;;
43504;SDS011;29098;48.184;16.298;2022-08-05T03:24:55;7.05;;;4.70;;
43504;SDS011;29098;48.184;16.298;2022-08-05T03:27:22;8.90;;;5.03;;
43504;SDS011;29098;48.184;16.298;2022-08-05T03:29:50;6.80;;;4.35;;
43504;SDS011;29098;48.184;16.298;2022-08-05T03:32:16;8.13;;;5.30;;
43504;SDS011;29098;48.184;16.298;2022-08-05T03:34:43;8.48;;;5.07;;
43504;SDS011;29098;48.184;16.298;2022-08-05T03:37:12;6.47;;;4.80;;
43504;SDS011;29098;48.184;16.298;2022-08-05T03:39:37;5.68;;;4.32;;
43504;SDS011;29098;48.184;16.298;2022-08-05T03:42:15;8.35;;;4.60;;
43504;SDS011;29098;48.184;16.298;2022-08-05T03:44:41;6.05;;;4.50;;
43504;SDS011;29098;48.184;16.298;2022-08-05T03:47:06;6.57;;;4.90;;
43504;SDS011;29098;48.184;16.298;2022-08-05T03:49:32;6.93;;;4.60;;
43504;SDS011;29098;48.184;16.298;2022-08-05T03:52:00;7.03;;;4.75;;
43504;SDS011;29098;48.184;16.298;2022-08-05T03:56:59;7.32;;;4.50;;
43504;SDS011;29098;48.184;16.298;2022-08-05T03:59:30;5.57;;;4.35;;
43504;SDS011;29098;48.184;16.298;2022-08-05T04:01:59;8.63;;;5.18;;
43504;SDS011;29098;48.184;16.298;2022-08-05T04:04:26;7.32;;;4.65;;
43504;SDS011;29098;48.184;16.298;2022-08-05T04:06:54;7.63;;;4.90;;
43504;SDS011;29098;48.184;16.298;2022-08-05T04:09:20;6.15;;;3.95;;
43504;SDS011;29098;48.184;16.298;2022-08-05T04:11:47;7.07;;;4.30;;
43504;SDS011;29098;48.184;16.298;2022-08-05T04:14:14;6.63;;;5.15;;
43504;SDS011;29098;48.184;16.298;2022-08-05T04:16:41;8.02;;;5.05;;
43504;SDS011;29098;48.184;16.298;2022-08-05T04:19:10;8.40;;;4.38;;
43504;SDS011;29098;48.184;16.298;2022-08-05T04:21:36;6.35;;;4.57;;
43504;SDS011;29098;48.184;16.298;2022-08-05T04:24:02;6.30;;;4.78;;
43504;SDS011;29098;48.184;16.298;2022-08-05T04:26:29;8.93;;;4.57;;
43504;SDS011;29098;48.184;16.298;2022-08-05T04:28:55;7.68;;;4.80;;
43504;SDS011;29098;48.184;16.298;2022-08-05T04:31:21;8.45;;;5.00;;
43504;SDS011;29098;48.184;16.298;2022-08-05T04:33:46;5.93;;;4.63;;
43504;SDS011;29098;48.184;16.298;2022-08-05T04:36:12;5.70;;;4.20;;
43504;SDS011;29098;48.184;16.298;2022-08-05T04:38:39;8.48;;;4.97;;
43504;SDS011;29098;48.184;16.298;2022-08-05T04:41:07;7.45;;;4.70;;
43504;SDS011;29098;48.184;16.298;2022-08-05T04:43:33;6.25;;;4.28;;
43504;SDS011;29098;48.184;16.298;2022-08-05T04:45:58;8.88;;;4.85;;
43504;SDS011;29098;48.184;16.298;2022-08-05T04:48:24;6.25;;;4.57;;
43504;SDS011;29098;48.184;16.298;2022-08-05T04:50:49;7.00;;;4.63;;
43504;SDS011;29098;48.184;16.298;2022-08-05T04:53:15;7.40;;;4.25;;
43504;SDS011;29098;48.184;16.298;2022-08-05T04:55:41;6.53;;;4.50;;
43504;SDS011;29098;48.184;16.298;2022-08-05T04:58:09;8.23;;;4.70;;
43504;SDS011;29098;48.184;16.298;2022-08-05T05:00:37;9.27;;;5.03;;
43504;SDS011;29098;48.184;16.298;2022-08-05T05:03:05;5.80;;;4.30;;
43504;SDS011;29098;48.184;16.298;2022-08-05T05:05:33;7.05;;;5.13;;
43504;SDS011;29098;48.184;16.298;2022-08-05T05:08:00;6.60;;;4.60;;
43504;SDS011;29098;48.184;16.298;2022-08-05T05:10:28;6.88;;;4.25;;
43504;SDS011;29098;48.184;16.298;2022-08-05T05:12:54;7.72;;;5.18;;
43504;SDS011;29098;48.184;16.298;2022-08-05T05:15:20;10.57;;;5.50;;
43504;SDS011;29098;48.184;16.298;2022-08-05T05:17:45;10.15;;;7.10;;
43504;SDS011;29098;48.184;16.298;2022-08-05T05:20:11;9.63;;;6.00;;
43504;SDS011;29098;48.184;16.298;2022-08-05T05:22:37;9.38;;;5.10;;
43504;SDS011;29098;48.184;16.298;2022-08-05T05:25:04;9.45;;;5.20;;
43504;SDS011;29098;48.184;16.298;2022-08-05T05:27:31;7.40;;;5.18;;
43504;SDS011;29098;48.184;16.298;2022-08-05T05:29:58;6.43;;;4.35;;
43504;SDS011;29098;48.184;16.298;2022-08-05T05:32:24;8.45;;;5.00;;
43504;SDS011;29098;48.184;16.298;2022-08-05T05:34:49;8.43;;;4.40;;
43504;SDS011;29098;48.184;16.298;2022-08-05T05:37:15;9.50;;;4.85;;
43504;SDS011;29098;48.184;16.298;2022-08-05T05:39:41;6.57;;;4.25;;
43504;SDS011;29098;48.184;16.298;2022-08-05T05:42:07;9.68;;;4.50;;
43504;SDS011;29098;48.184;16.298;2022-08-05T05:44:32;7.40;;;4.78;;
43504;SDS011;29098;48.184;16.298;2022-08-05T05:46:58;5.28;;;4.10;;
43504;SDS011;29098;48.184;16.298;2022-08-05T05:49:24;8.55;;;4.50;;
43504;SDS011;29098;48.184;16.298;2022-08-05T05:51:50;6.75;;;4.47;;
43504;SDS011;29098;48.184;16.298;2022-08-05T05:54:16;7.90;;;5.00;;
43504;SDS011;29098;48.184;16.298;2022-08-05T05:56:42;7.55;;;4.45;;
43504;SDS011;29098;48.184;16.298;2022-08-05T05:59:07;7.43;;;3.60;;
43504;SDS011;29098;48.184;16.298;2022-08-05T06:01:34;6.80;;;4.90;;
43504;SDS011;29098;48.184;16.298;2022-08-05T06:04:00;7.13;;;4.55;;
43504;SDS011;29098;48.184;16.298;2022-08-05T06:06:26;5.43;;;3.67;;
43504;SDS011;29098;48.184;16.298;2022-08-05T06:08:52;8.73;;;4.20;;
43504;SDS011;29098;48.184;16.298;2022-08-05T06:11:17;6.47;;;3.85;;
43504;SDS011;29098;48.184;16.298;2022-08-05T06:13:43;7.07;;;4.03;;
43504;SDS011;29098;48.184;16.298;2022-08-05T06:16:08;6.32;;;4.63;;
43504;SDS011;29098;48.184;16.298;2022-08-05T06:18:34;10.85;;;4.60;;
43504;SDS011;29098;48.184;16.298;2022-08-05T06:21:01;11.05;;;4.45;;
43504;SDS011;29098;48.184;16.298;2022-08-05T06:23:27;7.57;;;4.30;;
43504;SDS011;29098;48.184;16.298;2022-08-05T06:25:53;5.93;;;4.00;;
43504;SDS011;29098;48.184;16.298;2022-08-05T06:28:18;7.55;;;4.18;;
43504;SDS011;29098;48.184;16.298;2022-08-05T06:30:46;12.32;;;4.28;;
43504;SDS011;29098;48.184;16.298;2022-08-05T06:33:11;6.80;;;4.00;;
43504;SDS011;29098;48.184;16.298;2022-08-05T06:35:37;7.47;;;4.15;;
43504;SDS011;29098;48.184;16.298;2022-08-05T06:38:03;10.90;;;4.90;;
43504;SDS011;29098;48.184;16.298;2022-08-05T06:40:28;7.20;;;4.35;;
43504;SDS011;29098;48.184;16.298;2022-08-05T06:42:54;6.90;;;4.28;;
43504;SDS011;29098;48.184;16.298;2022-08-05T06:45:20;8.60;;;4.65;;
43504;SDS011;29098;48.184;16.298;2022-08-05T06:47:46;6.03;;;4.40;;
43504;SDS011;29098;48.184;16.298;2022-08-05T06:50:11;5.18;;;4.03;;
43504;SDS011;29098;48.184;16.298;2022-08-05T06:52:37;5.18;;;3.90;;
43504;SDS011;29098;48.184;16.298;2022-08-05T06:55:03;8.23;;;3.97;;
43504;SDS011;29098;48.184;16.298;2022-08-05T06:57:28;5.78;;;4.20;;
43504;SDS011;29098;48.184;16.298;2022-08-05T06:59:54;7.97;;;4.68;;
43504;SDS011;29098;48.184;16.298;2022-08-05T07:02:20;6.15;;;3.90;;
43504;SDS011;29098;48.184;16.298;2022-08-05T07:04:45;5.80;;;4.38;;
43504;SDS011;29098;48.184;16.298;2022-08-05T07:07:11;7.07;;;4.22;;
43504;SDS011;29098;48.184;16.298;2022-08-05T07:09:36;6.43;;;4.07;;
43504;SDS011;29098;48.184;16.298;2022-08-05T07:12:02;7.45;;;4.60;;
43504;SDS011;29098;48.184;16.298;2022-08-05T07:14:28;6.63;;;4.00;;
43504;SDS011;29098;48.184;16.298;2022-08-05T07:17:11;8.07;;;4.15;;
43504;SDS011;29098;48.184;16.298;2022-08-05T07:19:37;6.90;;;4.18;;
43504;SDS011;29098;48.184;16.298;2022-08-05T07:22:03;5.35;;;4.00;;
43504;SDS011;29098;48.184;16.298;2022-08-05T07:24:29;8.25;;;4.25;;
43504;SDS011;29098;48.184;16.298;2022-08-05T07:26:54;7.53;;;4.32;;
43504;SDS011;29098;48.184;16.298;2022-08-05T07:29:20;6.45;;;3.90;;
43504;SDS011;29098;48.184;16.298;2022-08-05T07:31:45;5.05;;;3.63;;
43504;SDS011;29098;48.184;16.298;2022-08-05T07:34:11;6.38;;;4.20;;
43504;SDS011;29098;48.184;16.298;2022-08-05T07:36:36;6.05;;;3.70;;
43504;SDS011;29098;48.184;16.298;2022-08-05T07:39:03;5.18;;;3.72;;
43504;SDS011;29098;48.184;16.298;2022-08-05T07:41:30;6.65;;;3.75;;
43504;SDS011;29098;48.184;16.298;2022-08-05T07:43:56;6.03;;;4.18;;
43504;SDS011;29098;48.184;16.298;2022-08-05T07:46:26;6.57;;;3.88;;
43504;SDS011;29098;48.184;16.298;2022-08-05T07:48:53;5.72;;;3.80;;
43504;SDS011;29098;48.184;16.298;2022-08-05T07:51:21;6.68;;;3.92;;
43504;SDS011;29098;48.184;16.298;2022-08-05T07:53:46;7.65;;;4.25;;
43504;SDS011;29098;48.184;16.298;2022-08-05T07:56:12;7.60;;;3.97;;
43504;SDS011;29098;48.184;16.298;2022-08-05T07:58:37;6.65;;;3.63;;
43504;SDS011;29098;48.184;16.298;2022-08-05T08:01:03;5.88;;;3.80;;
43504;SDS011;29098;48.184;16.298;2022-08-05T08:03:29;6.13;;;3.75;;
43504;SDS011;29098;48.184;16.298;2022-08-05T08:05:54;8.23;;;4.20;;
43504;SDS011;29098;48.184;16.298;2022-08-05T08:08:20;7.10;;;4.32;;
43504;SDS011;29098;48.184;16.298;2022-08-05T08:10:45;4.53;;;3.55;;
43504;SDS011;29098;48.184;16.298;2022-08-05T08:13:11;6.00;;;3.90;;
43504;SDS011;29098;48.184;16.298;2022-08-05T08:15:36;7.25;;;3.67;;
43504;SDS011;29098;48.184;16.298;2022-08-05T08:18:02;7.47;;;3.40;;
43504;SDS011;29098;48.184;16.298;2022-08-05T08:20:28;6.20;;;3.83;;
43504;SDS011;29098;48.184;16.298;2022-08-05T08:22:54;4.82;;;3.38;;
43504;SDS011;29098;48.184;16.298;2022-08-05T08:25:23;5.00;;;3.53;;
43504;SDS011;29098;48.184;16.298;2022-08-05T08:27:49;9.07;;;5.25;;
43504;SDS011;29098;48.184;16.298;2022-08-05T08:30:15;6.13;;;3.63;;
43504;SDS011;29098;48.184;16.298;2022-08-05T08:32:41;5.30;;;3.88;;
43504;SDS011;29098;48.184;16.298;2022-08-05T08:35:07;10.48;;;4.07;;
43504;SDS011;29098;48.184;16.298;2022-08-05T08:37:33;8.10;;;4.05;;
43504;SDS011;29098;48.184;16.298;2022-08-05T08:39:58;5.70;;;3.58;;
43504;SDS011;29098;48.184;16.298;2022-08-05T08:42:24;5.85;;;3.38;;
43504;SDS011;29098;48.184;16.298;2022-08-05T08:44:52;5.43;;;4.07;;
43504;SDS011;29098;48.184;16.298;2022-08-05T08:47:22;5.35;;;4.15;;
43504;SDS011;29098;48.184;16.298;2022-08-05T08:49:50;4.82;;;3.75;;
43504;SDS011;29098;48.184;16.298;2022-08-05T08:52:19;6.65;;;3.80;;
43504;SDS011;29098;48.184;16.298;2022-08-05T08:54:48;8.60;;;3.70;;
43504;SDS011;29098;48.184;16.298;2022-08-05T08:57:17;7.55;;;4.43;;
43504;SDS011;29098;48.184;16.298;2022-08-05T08:59:43;6.10;;;3.60;;
43504;SDS011;29098;48.184;16.298;2022-08-05T09:02:08;6.10;;;4.20;;
43504;SDS011;29098;48.184;16.298;2022-08-05T09:04:35;8.10;;;4.10;;
43504;SDS011;29098;48.184;16.298;2022-08-05T09:07:03;14.27;;;4.03;;
43504;SDS011;29098;48.184;16.298;2022-08-05T09:09:32;7.78;;;4.18;;
43504;SDS011;29098;48.184;16.298;2022-08-05T09:11:59;8.63;;;4.68;;
43504;SDS011;29098;48.184;16.298;2022-08-05T09:14:26;8.10;;;4.05;;
43504;SDS011;29098;48.184;16.298;2022-08-05T09:16:52;6.88;;;4.10;;
43504;SDS011;29098;48.184;16.298;2022-08-05T09:19:18;4.85;;;3.55;;
43504;SDS011;29098;48.184;16.298;2022-08-05T09:21:44;6.45;;;4.05;;
43504;SDS011;29098;48.184;16.298;2022-08-05T09:24:16;6.55;;;4.00;;
43504;SDS011;29098;48.184;16.298;2022-08-05T09:26:45;8.90;;;3.88;;
43504;SDS011;29098;48.184;16.298;2022-08-05T09:29:12;6.35;;;3.92;;
43504;SDS011;29098;48.184;16.298;2022-08-05T09:31:38;6.88;;;4.15;;
43504;SDS011;29098;48.184;16.298;2022-08-05T09:34:07;6.60;;;4.03;;
43504;SDS011;29098;48.184;16.298;2022-08-05T09:39:06;7.78;;;4.20;;
43504;SDS011;29098;48.184;16.298;2022-08-05T09:41:33;5.47;;;4.07;;
43504;SDS011;29098;48.184;16.298;2022-08-05T09:43:59;8.82;;;4.40;;
43504;SDS011;29098;48.184;16.298;2022-08-05T09:46:28;5.80;;;3.75;;
43504;SDS011;29098;48.184;16.298;2022-08-05T09:48:56;8.30;;;4.40;;
43504;SDS011;29098;48.184;16.298;2022-08-05T09:53:59;7.82;;;3.95;;
43504;SDS011;29098;48.184;16.298;2022-08-05T09:56:26;8.80;;;4.78;;
43504;SDS011;29098;48.184;16.298;2022-08-05T09:58:57;7.25;;;4.45;;
43504;SDS011;29098;48.184;16.298;2022-08-05T10:01:24;6.68;;;4.10;;
43504;SDS011;29098;48.184;16.298;2022-08-05T10:03:59;6.30;;;4.00;;
43504;SDS011;29098;48.184;16.298;2022-08-05T10:06:27;5.72;;;4.03;;
43504;SDS011;29098;48.184;16.298;2022-08-05T10:08:53;5.07;;;3.75;;
43504;SDS011;29098;48.184;16.298;2022-08-05T10:11:19;5.85;;;4.22;;
43504;SDS011;29098;48.184;16.298;2022-08-05T10:13:44;9.40;;;4.10;;
43504;SDS011;29098;48.184;16.298;2022-08-05T10:16:43;7.13;;;4.68;;
43504;SDS011;29098;48.184;16.298;2022-08-05T10:19:02;8.25;;;4.45;;
43504;SDS011;29098;48.184;16.298;2022-08-05T10:21:27;6.40;;;4.38;;
43504;SDS011;29098;48.184;16.298;2022-08-05T10:23:56;5.38;;;4.35;;
43504;SDS011;29098;48.184;16.298;2022-08-05T10:26:22;5.72;;;4.30;;
43504;SDS011;29098;48.184;16.298;2022-08-05T10:28:47;7.10;;;4.47;;
43504;SDS011;29098;48.184;16.298;2022-08-05T10:31:13;8.30;;;4.20;;
43504;SDS011;29098;48.184;16.298;2022-08-05T10:33:40;6.53;;;4.40;;
43504;SDS011;29098;48.184;16.298;2022-08-05T10:36:08;8.05;;;3.80;;
43504;SDS011;29098;48.184;16.298;2022-08-05T10:38:34;7.40;;;4.30;;
43504;SDS011;29098;48.184;16.298;2022-08-05T10:43:30;6.57;;;4.55;;
43504;SDS011;29098;48.184;16.298;2022-08-05T10:46:02;6.13;;;4.43;;
43504;SDS011;29098;48.184;16.298;2022-08-05T10:50:57;6.72;;;4.32;;
43504;SDS011;29098;48.184;16.298;2022-08-05T10:53:35;6.90;;;3.92;;
43504;SDS011;29098;48.184;16.298;2022-08-05T10:56:03;5.03;;;3.90;;
43504;SDS011;29098;48.184;16.298;2022-08-05T11:01:35;6.53;;;4.35;;
43504;SDS011;29098;48.184;16.298;2022-08-05T11:15:15;5.32;;;3.97;;
43504;SDS011;29098;48.184;16.298;2022-08-05T11:17:43;6.50;;;4.30;;
43504;SDS011;29098;48.184;16.298;2022-08-05T11:26:08;5.10;;;4.10;;
43504;SDS011;29098;48.184;16.298;2022-08-05T11:33:34;6.35;;;3.67;;
43504;SDS011;29098;48.184;16.298;2022-08-05T11:36:02;5.38;;;4.10;;
43504;SDS011;29098;48.184;16.298;2022-08-05T11:41:07;6.25;;;2.92;;
43504;SDS011;29098;48.184;16.298;2022-08-05T11:43:37;4.25;;;3.10;;
43504;SDS011;29098;48.184;16.298;2022-08-05T11:46:05;4.57;;;2.85;;
43504;SDS011;29098;48.184;16.298;2022-08-05T11:48:30;5.40;;;3.47;;
43504;SDS011;29098;48.184;16.298;2022-08-05T11:50:57;7.75;;;4.05;;
43504;SDS011;29098;48.184;16.298;2022-08-05T11:53:22;6.97;;;3.92;;
43504;SDS011;29098;48.184;16.298;2022-08-05T11:55:52;5.45;;;3.95;;
43504;SDS011;29098;48.184;16.298;2022-08-05T11:58:34;8.00;;;4.10;;
43504;SDS011;29098;48.184;16.298;2022-08-05T12:03:27;5.50;;;3.80;;
43504;SDS011;29098;48.184;16.298;2022-08-05T12:05:56;8.25;;;4.45;;
43504;SDS011;29098;48.184;16.298;2022-08-05T12:08:23;5.82;;;3.35;;
43504;SDS011;29098;48.184;16.298;2022-08-05T12:10:48;5.30;;;2.50;;
43504;SDS011;29098;48.184;16.298;2022-08-05T12:13:15;4.10;;;2.25;;
43504;SDS011;29098;48.184;16.298;2022-08-05T12:15:44;4.60;;;2.50;;
43504;SDS011;29098;48.184;16.298;2022-08-05T12:18:10;5.93;;;3.33;;
43504;SDS011;29098;48.184;16.298;2022-08-05T12:20:42;3.80;;;2.50;;
43504;SDS011;29098;48.184;16.298;2022-08-05T12:23:10;4.97;;;2.28;;
43504;SDS011;29098;48.184;16.298;2022-08-05T12:25:49;3.63;;;2.50;;
43504;SDS011;29098;48.184;16.298;2022-08-05T12:28:28;3.55;;;2.45;;
43504;SDS011;29098;48.184;16.298;2022-08-05T12:30:56;3.97;;;2.20;;
43504;SDS011;29098;48.184;16.298;2022-08-05T12:33:22;4.20;;;2.65;;
43504;SDS011;29098;48.184;16.298;2022-08-05T12:35:48;3.50;;;2.22;;
43504;SDS011;29098;48.184;16.298;2022-08-05T12:38:14;4.97;;;2.20;;
43504;SDS011;29098;48.184;16.298;2022-08-05T12:40:40;3.40;;;2.33;;
43504;SDS011;29098;48.184;16.298;2022-08-05T12:43:05;3.38;;;2.33;;
43504;SDS011;29098;48.184;16.298;2022-08-05T12:45:31;3.40;;;2.10;;
43504;SDS011;29098;48.184;16.298;2022-08-05T12:47:56;3.70;;;2.50;;
43504;SDS011;29098;48.184;16.298;2022-08-05T12:50:22;5.75;;;3.03;;
43504;SDS011;29098;48.184;16.298;2022-08-05T12:52:54;4.40;;;2.30;;
43504;SDS011;29098;48.184;16.298;2022-08-05T12:55:24;3.92;;;2.60;;
43504;SDS011;29098;48.184;16.298;2022-08-05T12:57:52;4.22;;;2.78;;
43504;SDS011;29098;48.184;16.298;2022-08-05T13:00:19;4.90;;;2.60;;
43504;SDS011;29098;48.184;16.298;2022-08-05T13:02:46;3.65;;;2.58;;
43504;SDS011;29098;48.184;16.298;2022-08-05T13:05:12;5.32;;;2.38;;
43504;SDS011;29098;48.184;16.298;2022-08-05T13:07:38;3.75;;;2.30;;
43504;SDS011;29098;48.184;16.298;2022-08-05T13:10:09;4.32;;;2.60;;
43504;SDS011;29098;48.184;16.298;2022-08-05T13:12:39;3.20;;;2.30;;
43504;SDS011;29098;48.184;16.298;2022-08-05T13:15:08;3.60;;;2.50;;
43504;SDS011;29098;48.184;16.298;2022-08-05T13:17:34;3.45;;;2.50;;
43504;SDS011;29098;48.184;16.298;2022-08-05T13:22:41;3.88;;;2.58;;
43504;SDS011;29098;48.184;16.298;2022-08-05T13:25:10;4.43;;;2.83;;
43504;SDS011;29098;48.184;16.298;2022-08-05T13:27:51;3.40;;;2.60;;
43504;SDS011;29098;48.184;16.298;2022-08-05T13:30:18;3.95;;;2.58;;
43504;SDS011;29098;48.184;16.298;2022-08-05T13:32:46;3.47;;;2.45;;
43504;SDS011;29098;48.184;16.298;2022-08-05T13:35:13;3.75;;;2.50;;
43504;SDS011;29098;48.184;16.298;2022-08-05T13:37:39;4.30;;;2.90;;
43504;SDS011;29098;48.184;16.298;2022-08-05T13:40:06;3.95;;;2.60;;
43504;SDS011;29098;48.184;16.298;2022-08-05T13:42:32;4.80;;;2.20;;
43504;SDS011;29098;48.184;16.298;2022-08-05T13:44:58;5.00;;;3.00;;
43504;SDS011;29098;48.184;16.298;2022-08-05T13:47:31;5.93;;;3.03;;
43504;SDS011;29098;48.184;16.298;2022-08-05T13:49:58;3.63;;;2.63;;
43504;SDS011;29098;48.184;16.298;2022-08-05T13:52:25;5.82;;;2.67;;
43504;SDS011;29098;48.184;16.298;2022-08-05T13:54:53;6.03;;;2.80;;
43504;SDS011;29098;48.184;16.298;2022-08-05T13:57:19;6.10;;;2.97;;
43504;SDS011;29098;48.184;16.298;2022-08-05T13:59:45;7.03;;;2.70;;
43504;SDS011;29098;48.184;16.298;2022-08-05T14:02:12;5.28;;;2.50;;
43504;SDS011;29098;48.184;16.298;2022-08-05T14:04:39;4.35;;;3.15;;
43504;SDS011;29098;48.184;16.298;2022-08-05T14:07:26;4.38;;;2.70;;
43504;SDS011;29098;48.184;16.298;2022-08-05T14:09:53;4.25;;;2.58;;
43504;SDS011;29098;48.184;16.298;2022-08-05T14:12:19;7.57;;;2.72;;
43504;SDS011;29098;48.184;16.298;2022-08-05T14:14:45;4.32;;;2.17;;
43504;SDS011;29098;48.184;16.298;2022-08-05T14:17:11;6.07;;;2.50;;
43504;SDS011;29098;48.184;16.298;2022-08-05T14:19:38;4.93;;;2.38;;
43504;SDS011;29098;48.184;16.298;2022-08-05T14:22:04;4.75;;;2.53;;
43504;SDS011;29098;48.184;16.298;2022-08-05T14:24:29;3.75;;;2.60;;
43504;SDS011;29098;48.184;16.298;2022-08-05T14:26:55;4.38;;;2.70;;
43504;SDS011;29098;48.184;16.298;2022-08-05T14:29:20;4.93;;;2.92;;
43504;SDS011;29098;48.184;16.298;2022-08-05T14:31:46;4.85;;;3.10;;
43504;SDS011;29098;48.184;16.298;2022-08-05T14:34:11;3.90;;;2.55;;
43504;SDS011;29098;48.184;16.298;2022-08-05T14:36:37;4.35;;;2.80;;
43504;SDS011;29098;48.184;16.298;2022-08-05T14:39:02;4.75;;;2.55;;
43504;SDS011;29098;48.184;16.298;2022-08-05T14:41:29;5.75;;;3.83;;
43504;SDS011;29098;48.184;16.298;2022-08-05T14:43:56;5.93;;;3.20;;
43504;SDS011;29098;48.184;16.298;2022-08-05T14:46:22;3.50;;;2.58;;
43504;SDS011;29098;48.184;16.298;2022-08-05T14:48:48;6.13;;;2.80;;
43504;SDS011;29098;48.184;16.298;2022-08-05T14:51:13;5.38;;;2.75;;
43504;SDS011;29098;48.184;16.298;2022-08-05T14:53:39;4.25;;;2.83;;
43504;SDS011;29098;48.184;16.298;2022-08-05T14:56:04;4.25;;;2.65;;
43504;SDS011;29098;48.184;16.298;2022-08-05T14:58:30;5.55;;;3.00;;
43504;SDS011;29098;48.184;16.298;2022-08-05T15:00:56;6.55;;;2.90;;
43504;SDS011;29098;48.184;16.298;2022-08-05T15:03:21;5.75;;;2.88;;
43504;SDS011;29098;48.184;16.298;2022-08-05T15:05:47;5.40;;;3.13;;
43504;SDS011;29098;48.184;16.298;2022-08-05T15:08:12;5.03;;;2.92;;
43504;SDS011;29098;48.184;16.298;2022-08-05T15:10:38;3.58;;;2.40;;
43504;SDS011;29098;48.184;16.298;2022-08-05T15:13:05;3.97;;;3.03;;
43504;SDS011;29098;48.184;16.298;2022-08-05T15:15:30;7.72;;;2.95;;
43504;SDS011;29098;48.184;16.298;2022-08-05T15:17:56;7.80;;;4.70;;
43504;SDS011;29098;48.184;16.298;2022-08-05T15:20:21;12.70;;;3.78;;
43504;SDS011;29098;48.184;16.298;2022-08-05T15:22:48;8.40;;;2.90;;
43504;SDS011;29098;48.184;16.298;2022-08-05T15:25:14;4.85;;;2.90;;
43504;SDS011;29098;48.184;16.298;2022-08-05T15:27:39;6.80;;;2.30;;
43504;SDS011;29098;48.184;16.298;2022-08-05T15:30:05;4.40;;;2.78;;
43504;SDS011;29098;48.184;16.298;2022-08-05T15:32:31;5.07;;;3.03;;
43504;SDS011;29098;48.184;16.298;2022-08-05T15:34:57;4.82;;;3.10;;
43504;SDS011;29098;48.184;16.298;2022-08-05T15:37:23;6.10;;;2.60;;
43504;SDS011;29098;48.184;16.298;2022-08-05T15:39:49;3.60;;;2.53;;